Terminal Aerodrome Forecast
Issued by NWS

Home | Current Version | Previous Version | Text Only | Print | Product List | Glossary On
Versions: 1 2 3 4 5 6 7 8 9 10 11 12 13 14 15 16 17 18
500
FTUS43 KLSX 231440 AAA
TAFCPS
TAF AMD
KCPS 231440Z 2315/2412 12011KT P6SM -SHRA VCTS OVC040CB
      TEMPO 2315/2316 5SM -SHRA OVC050
     FM231700 13007KT P6SM OVC035
     FM232100 14012KT P6SM BKN250
     FM240300 16012G18KT P6SM SCT250 WS014/18040KT=

USA.gov is the U.S. government's official web portal to all federal, state and local government web resources and services.